createdAt,value
2018-11-10T00:00:02.499Z,13.83
2018-11-10T00:02:35.317Z,11.07
2018-11-10T00:05:05.006Z,9.93
2018-11-10T00:07:46.821Z,10.77
2018-11-10T00:10:17.826Z,10.53
2018-11-10T00:12:48.030Z,11.23
2018-11-10T00:15:16.728Z,10.07
2018-11-10T00:17:45.626Z,11.47
2018-11-10T00:20:15.054Z,15.60
2018-11-10T00:22:45.739Z,12.53
2018-11-10T00:25:15.464Z,9.87
2018-11-10T00:27:47.517Z,9.63
2018-11-10T00:30:17.228Z,11.23
2018-11-10T00:32:50.053Z,9.73
2018-11-10T00:35:18.865Z,11.37
2018-11-10T00:37:51.595Z,11.03
2018-11-10T00:40:21.289Z,11.73
2018-11-10T00:43:03.331Z,9.40
2018-11-10T00:45:32.428Z,13.87
2018-11-10T00:48:02.445Z,10.07
2018-11-10T00:50:31.837Z,8.60
2018-11-10T00:53:02.462Z,10.60
2018-11-10T00:55:31.742Z,7.27
2018-11-10T00:58:03.646Z,8.37
2018-11-10T01:00:33.623Z,7.87
2018-11-10T01:03:06.012Z,10.13
2018-11-10T01:05:35.014Z,9.87
2018-11-10T01:08:10.058Z,12.03
2018-11-10T01:10:39.045Z,12.97
2018-11-10T01:13:12.490Z,9.17
2018-11-10T01:15:41.501Z,8.70
2018-11-10T01:18:23.423Z,8.50
2018-11-10T01:20:52.702Z,13.30
2018-11-10T01:23:21.861Z,5.73
2018-11-10T01:25:51.405Z,8.70
2018-11-10T01:28:21.670Z,7.70
2018-11-10T01:30:50.198Z,8.10
2018-11-10T01:33:31.700Z,7.73
2018-11-10T01:36:01.194Z,6.80
2018-11-10T01:38:30.204Z,7.23
2018-11-10T01:40:58.828Z,9.00
2018-11-10T01:43:29.027Z,10.87
2018-11-10T01:45:58.306Z,6.73
2018-11-10T01:48:31.036Z,11.20
2018-11-10T01:51:01.198Z,6.60
2018-11-10T01:53:33.506Z,7.83
2018-11-10T01:56:02.471Z,6.23
2018-11-10T01:58:44.887Z,6.37
2018-11-10T02:01:13.894Z,6.63
2018-11-10T02:03:42.439Z,9.13
2018-11-10T02:06:12.024Z,8.83
2018-11-10T02:08:41.051Z,10.73
2018-11-10T02:11:09.548Z,6.37
2018-11-10T02:13:42.371Z,6.43
2018-11-10T02:16:10.849Z,5.23
2018-11-10T02:18:43.489Z,6.57
2018-11-10T02:21:13.770Z,6.50
2018-11-10T02:23:54.681Z,7.50
2018-11-10T02:26:23.974Z,5.63
2018-11-10T02:28:52.525Z,8.70
2018-11-10T02:31:21.782Z,5.80
2018-11-10T02:33:54.467Z,6.00
2018-11-10T02:36:23.458Z,5.87
2018-11-10T02:39:06.456Z,6.07
2018-11-10T02:41:35.809Z,5.30
2018-11-10T02:44:05.002Z,5.03
2018-11-10T02:46:33.988Z,5.37
2018-11-10T02:49:04.335Z,7.03
2018-11-10T02:51:33.334Z,5.23
2018-11-10T02:54:06.374Z,7.37
2018-11-10T02:56:35.161Z,7.63
2018-11-10T02:59:07.628Z,6.17
2018-11-10T03:01:36.608Z,8.70
2018-11-10T03:04:12.850Z,6.57
2018-11-10T03:06:41.425Z,12.07
2018-11-10T03:09:13.551Z,10.00
2018-11-10T03:11:42.853Z,9.43
2018-11-10T03:14:14.745Z,7.23
2018-11-10T03:16:44.131Z,8.43
2018-11-10T03:19:25.046Z,9.93
2018-11-10T03:21:53.544Z,10.60
2018-11-10T03:24:22.518Z,9.70
2018-11-10T03:26:51.539Z,9.40
2018-11-10T03:29:23.839Z,14.20
2018-11-10T03:31:52.382Z,10.17
2018-11-10T03:34:22.997Z,9.17
2018-11-10T03:36:52.869Z,9.37
2018-11-10T03:39:33.977Z,9.07
2018-11-10T03:42:03.255Z,8.80
2018-11-10T03:44:32.418Z,10.57
2018-11-10T03:47:01.498Z,11.37
2018-11-10T03:49:31.053Z,8.60
2018-11-10T03:52:00.112Z,10.67
2018-11-10T03:54:33.122Z,12.67
2018-11-10T03:57:02.584Z,7.23
2018-11-10T03:59:43.347Z,10.00
2018-11-10T04:02:12.603Z,6.20
2018-11-10T04:04:41.113Z,7.17
2018-11-10T04:07:09.636Z,8.23
2018-11-10T04:09:41.735Z,8.40
2018-11-10T04:12:10.244Z,11.07
2018-11-10T04:14:43.705Z,8.40
2018-11-10T04:17:12.202Z,10.43
2018-11-10T04:19:45.588Z,11.83
2018-11-10T04:22:14.377Z,11.90
2018-11-10T04:24:48.297Z,10.83
2018-11-10T04:27:17.257Z,12.07
2018-11-10T04:29:50.116Z,10.33
2018-11-10T04:32:19.121Z,8.87
2018-11-10T04:34:54.565Z,9.57
2018-11-10T04:37:24.134Z,11.20
2018-11-10T04:40:06.503Z,10.97
2018-11-10T04:42:35.760Z,10.93
2018-11-10T04:45:04.382Z,10.60
2018-11-10T04:47:33.365Z,10.33
2018-11-10T04:50:04.176Z,10.57
2018-11-10T04:52:33.138Z,12.60
2018-11-10T04:55:05.439Z,11.53
2018-11-10T04:57:34.782Z,12.27
2018-11-10T05:00:07.853Z,7.57
2018-11-10T05:02:36.853Z,10.13
2018-11-10T05:05:05.733Z,11.87
2018-11-10T05:07:34.377Z,11.10
2018-11-10T05:10:03.375Z,12.03
2018-11-10T05:12:31.877Z,15.27
2018-11-10T05:15:01.041Z,14.13
2018-11-10T05:17:30.286Z,13.37
2018-11-10T05:19:59.944Z,12.13
2018-11-10T05:22:29.298Z,13.57
2018-11-10T05:24:59.767Z,13.50
2018-11-10T05:27:28.922Z,16.23
2018-11-10T05:29:58.030Z,15.40
2018-11-10T05:32:26.581Z,17.90
2018-11-10T05:34:55.539Z,14.27
2018-11-10T05:37:26.689Z,13.57
2018-11-10T05:39:55.670Z,14.83
2018-11-10T05:42:28.619Z,16.27
2018-11-10T05:44:57.920Z,15.30
2018-11-10T05:47:30.298Z,16.47
2018-11-10T05:56:47.805Z,15.53
2018-11-10T05:59:17.410Z,18.40
2018-11-10T06:01:46.558Z,17.00
2018-11-10T06:04:15.069Z,14.50
2018-11-10T06:06:44.333Z,14.00
2018-11-10T06:09:13.347Z,11.87
2018-11-10T06:11:42.335Z,8.90
2018-11-10T06:14:11.592Z,4.83
2018-11-10T06:16:44.645Z,2.73
2018-11-10T06:19:13.626Z,6.27
2018-11-10T06:21:47.110Z,4.73
2018-11-10T06:24:15.613Z,4.47
2018-11-10T06:26:48.775Z,2.90
2018-11-10T06:29:17.567Z,3.20
2018-11-10T06:31:53.101Z,3.97
2018-11-10T06:34:22.111Z,5.50
2018-11-10T06:36:55.872Z,3.50
2018-11-10T06:39:24.643Z,6.60
2018-11-10T06:41:57.767Z,3.17
2018-11-10T06:44:26.721Z,4.20
2018-11-10T06:47:00.123Z,2.30
2018-11-10T06:49:28.754Z,2.73
2018-11-10T06:52:02.263Z,2.53
2018-11-10T06:54:31.248Z,2.80
2018-11-10T06:57:06.253Z,6.57
2018-11-10T06:59:35.104Z,4.47
2018-11-10T07:02:11.081Z,3.90
2018-11-10T07:04:40.086Z,2.80
2018-11-10T07:07:21.778Z,3.50
2018-11-10T07:09:50.569Z,3.50
2018-11-10T07:12:19.566Z,2.90
2018-11-10T07:14:48.553Z,3.00
2018-11-10T07:17:17.519Z,3.50
2018-11-10T07:19:46.954Z,2.33
2018-11-10T07:22:19.258Z,2.57
2018-11-10T07:24:47.826Z,2.10
2018-11-10T07:27:21.495Z,3.10
2018-11-10T07:29:51.011Z,2.90
2018-11-10T07:32:32.758Z,2.97
2018-11-10T07:35:02.529Z,3.73
2018-11-10T07:37:31.740Z,2.10
2018-11-10T07:40:01.278Z,2.40
2018-11-10T07:42:32.539Z,3.23
2018-11-10T07:45:01.700Z,4.30
2018-11-10T07:47:30.733Z,2.90
2018-11-10T07:50:00.331Z,2.10
2018-11-10T07:52:32.941Z,1.97
2018-11-10T07:55:03.203Z,1.73
2018-11-10T07:57:36.929Z,2.33
2018-11-10T08:00:08.435Z,2.73
2018-11-10T08:02:38.934Z,2.33
2018-11-10T08:05:09.578Z,2.93
2018-11-10T08:07:43.967Z,2.33
2018-11-10T08:10:13.698Z,2.07
2018-11-10T08:12:44.502Z,2.30
2018-11-10T08:15:17.825Z,3.90
2018-11-10T08:17:47.010Z,1.43
2018-11-10T08:20:16.365Z,1.53
2018-11-10T08:22:49.206Z,1.60
2018-11-10T08:25:18.894Z,2.07
2018-11-10T08:27:51.194Z,2.07
2018-11-10T08:30:20.170Z,1.30
2018-11-10T08:32:53.493Z,1.37
2018-11-10T08:35:22.718Z,1.17
2018-11-10T08:38:03.778Z,1.87
2018-11-10T08:40:32.795Z,2.97
2018-11-10T08:43:02.585Z,1.43
2018-11-10T08:45:31.886Z,13.97
2018-11-10T08:48:04.130Z,3.33
2018-11-10T08:50:32.981Z,2.77
2018-11-10T08:53:07.064Z,2.60
2018-11-10T08:55:36.044Z,2.00
2018-11-10T08:58:08.086Z,1.67
2018-11-10T09:00:37.360Z,1.70
2018-11-10T09:05:53.627Z,2.90
2018-11-10T09:08:23.305Z,1.47
2018-11-10T09:10:52.158Z,1.30
2018-11-10T09:13:22.563Z,1.40
2018-11-10T09:15:51.539Z,1.30
2018-11-10T09:18:20.594Z,1.83
2018-11-10T09:20:49.817Z,1.40
2018-11-10T09:23:22.582Z,2.57
2018-11-10T09:25:51.144Z,1.10
2018-11-10T09:28:23.618Z,1.77
2018-11-10T09:30:52.818Z,1.40
2018-11-10T09:33:29.958Z,1.53
2018-11-10T09:36:04.325Z,1.47
2018-11-10T09:38:33.959Z,1.77
2018-11-10T09:41:02.858Z,1.40
2018-11-10T09:43:32.414Z,1.60
2018-11-10T09:46:01.887Z,1.37
2018-11-10T09:48:35.541Z,1.30
2018-11-10T09:51:05.504Z,1.93
2018-11-10T09:53:36.278Z,1.80
2018-11-10T09:56:06.126Z,2.60
2018-11-10T09:58:40.035Z,1.80
2018-11-10T10:01:10.019Z,0.97
2018-11-10T10:03:43.402Z,1.07
2018-11-10T10:06:12.002Z,1.00
2018-11-10T10:08:53.917Z,1.30
2018-11-10T10:11:23.727Z,1.67
2018-11-10T10:13:53.027Z,2.00
2018-11-10T10:16:22.800Z,1.80
2018-11-10T10:18:51.217Z,0.93
2018-11-10T10:21:22.274Z,1.80
2018-11-10T10:23:51.918Z,1.27
2018-11-10T10:26:23.690Z,1.80
2018-11-10T10:28:56.624Z,1.47
2018-11-10T10:31:25.169Z,0.77
2018-11-10T10:33:57.872Z,0.90
2018-11-10T10:36:26.937Z,3.17
2018-11-10T10:39:00.046Z,2.20
2018-11-10T10:41:28.700Z,1.63
2018-11-10T10:44:01.581Z,1.50
2018-11-10T10:46:30.181Z,1.40
2018-11-10T10:49:02.557Z,0.90
2018-11-10T10:51:33.430Z,0.73
2018-11-10T10:56:29.834Z,1.00
2018-11-10T10:59:01.619Z,1.90
2018-11-10T11:01:35.599Z,1.10
2018-11-10T11:04:13.218Z,1.27
2018-11-10T11:06:42.563Z,1.37
2018-11-10T11:09:15.830Z,1.10
2018-11-10T11:11:44.868Z,1.40
2018-11-10T11:14:18.046Z,2.20
2018-11-10T11:18:19.179Z,0.77
2018-11-10T11:20:47.996Z,2.53
2018-11-10T11:23:21.379Z,1.20
2018-11-10T11:25:50.019Z,1.30
2018-11-10T11:30:52.249Z,1.53
2018-11-10T11:33:26.325Z,1.20
2018-11-10T11:35:55.800Z,2.03
2018-11-10T11:38:29.151Z,1.20
2018-11-10T11:40:58.491Z,0.87
2018-11-10T11:43:32.982Z,2.13
2018-11-10T11:46:03.067Z,0.77
2018-11-10T11:48:36.157Z,1.00
2018-11-10T11:51:06.106Z,3.33
2018-11-10T11:53:47.721Z,1.00
2018-11-10T11:56:17.758Z,1.20
2018-11-10T11:58:46.715Z,1.33
2018-11-10T12:01:15.722Z,1.00
2018-11-10T12:03:45.238Z,0.70
2018-11-10T12:06:16.115Z,1.67
2018-11-10T12:08:46.702Z,1.60
2018-11-10T12:11:16.566Z,3.83
2018-11-10T12:13:55.646Z,5.40
2018-11-10T12:16:27.673Z,3.17
2018-11-10T12:18:55.845Z,1.40
2018-11-10T12:21:25.101Z,5.03
2018-11-10T12:23:57.304Z,1.03
2018-11-10T12:26:26.671Z,1.37
2018-11-10T12:29:00.942Z,1.20
2018-11-10T12:31:30.818Z,3.40
2018-11-10T12:34:02.274Z,1.20
2018-11-10T12:36:31.443Z,2.23
2018-11-10T12:39:05.646Z,2.60
2018-11-10T12:41:34.669Z,4.40
2018-11-10T12:44:11.025Z,1.87
2018-11-10T12:46:40.599Z,2.33
2018-11-10T12:49:15.249Z,4.53
2018-11-10T12:51:44.925Z,4.03
2018-11-10T12:54:14.821Z,2.87
2018-11-10T12:56:44.002Z,2.60
2018-11-10T12:59:17.832Z,1.53
2018-11-10T13:01:48.882Z,1.40
2018-11-10T13:04:20.582Z,2.07
2018-11-10T13:06:50.471Z,1.30
2018-11-10T13:09:20.422Z,1.10
2018-11-10T13:11:50.700Z,1.17
2018-11-10T13:14:21.703Z,1.17
2018-11-10T13:16:50.861Z,2.03
2018-11-10T13:19:24.962Z,1.13
2018-11-10T13:21:54.998Z,2.73
2018-11-10T13:24:28.034Z,1.00
2018-11-10T13:26:56.836Z,1.60
2018-11-10T13:29:30.771Z,1.00
2018-11-10T13:32:00.429Z,2.93
2018-11-10T13:34:33.850Z,3.80
2018-11-10T13:37:03.547Z,4.30
2018-11-10T13:39:41.090Z,4.83
2018-11-10T13:42:09.718Z,2.33
2018-11-10T13:44:39.931Z,3.23
2018-11-10T13:47:08.637Z,4.40
2018-11-10T13:49:42.316Z,5.53
2018-11-10T13:52:12.985Z,2.43
2018-11-10T13:54:46.134Z,2.50
2018-11-10T13:57:15.397Z,5.03
2018-11-10T13:59:49.078Z,4.67
2018-11-10T14:02:20.267Z,10.07
2018-11-10T14:04:51.883Z,6.20
2018-11-10T14:07:20.415Z,5.90
2018-11-10T14:09:53.898Z,2.37
2018-11-10T14:12:22.485Z,5.27
2018-11-10T14:14:54.701Z,5.40
2018-11-10T14:17:24.589Z,3.63
2018-11-10T14:20:07.943Z,2.03
2018-11-10T14:22:37.605Z,6.10
2018-11-10T14:25:07.347Z,4.67
2018-11-10T14:27:38.490Z,4.27
2018-11-10T14:30:14.518Z,1.57
2018-11-10T14:32:44.443Z,4.13
2018-11-10T14:35:14.731Z,6.07
2018-11-10T14:37:44.466Z,2.70
2018-11-10T14:40:16.219Z,2.30
2018-11-10T14:42:45.542Z,2.60
2018-11-10T14:45:16.007Z,1.80
2018-11-10T14:47:45.999Z,3.53
2018-11-10T14:50:17.542Z,6.00
2018-11-10T14:52:46.637Z,4.60
2018-11-10T14:55:17.694Z,3.60
2018-11-10T14:57:46.641Z,3.07
2018-11-10T15:00:21.010Z,6.07
2018-11-10T15:02:49.869Z,3.77
2018-11-10T15:05:24.406Z,4.73
2018-11-10T15:07:53.318Z,2.93
2018-11-10T15:10:27.082Z,5.60
2018-11-10T15:12:55.923Z,3.87
2018-11-10T15:15:25.890Z,3.67
2018-11-10T15:17:54.566Z,2.43
2018-11-10T15:20:29.028Z,3.53
2018-11-10T15:22:58.079Z,3.87
2018-11-10T15:25:39.491Z,3.27
2018-11-10T15:28:08.392Z,3.83
2018-11-10T15:30:37.828Z,3.53
2018-11-10T15:33:07.178Z,3.53
2018-11-10T15:35:36.979Z,4.83
2018-11-10T15:38:06.664Z,2.13
2018-11-10T15:40:39.069Z,5.57
2018-11-10T15:43:09.538Z,4.10
2018-11-10T15:45:42.972Z,11.97
2018-11-10T15:48:11.998Z,7.07
2018-11-10T15:50:47.814Z,6.20
2018-11-10T15:53:16.961Z,8.47
2018-11-10T15:55:48.739Z,5.60
2018-11-10T15:58:19.831Z,6.13
2018-11-10T16:00:49.708Z,4.60
2018-11-10T16:03:19.133Z,3.30
2018-11-10T16:05:51.672Z,4.27
2018-11-10T16:08:21.905Z,3.97
2018-11-10T16:10:55.961Z,2.70
2018-11-10T16:13:25.786Z,1.20
2018-11-10T16:16:00.973Z,1.80
2018-11-10T16:18:29.534Z,3.40
2018-11-10T16:21:02.940Z,2.37
2018-11-10T16:23:32.608Z,2.40
2018-11-10T16:26:04.958Z,1.53
2018-11-10T16:28:34.246Z,2.27
2018-11-10T16:31:07.194Z,1.80
2018-11-10T16:33:36.841Z,3.20
2018-11-10T16:36:09.688Z,1.40
2018-11-10T16:38:38.679Z,1.40
2018-11-10T16:41:14.414Z,2.63
2018-11-10T16:43:43.651Z,3.07
2018-11-10T16:46:17.404Z,3.33
2018-11-10T16:48:45.973Z,3.07
2018-11-10T16:51:30.212Z,2.53
2018-11-10T16:54:01.399Z,4.07
2018-11-10T16:56:30.394Z,1.77
2018-11-10T16:59:04.093Z,1.50
2018-11-10T17:01:33.973Z,1.37
2018-11-10T17:04:03.427Z,1.70
2018-11-10T17:06:32.395Z,3.07
2018-11-10T17:09:07.692Z,1.93
2018-11-10T17:11:36.230Z,2.43
2018-11-10T17:14:05.796Z,2.67
2018-11-10T17:16:34.693Z,2.40
2018-11-10T17:19:03.557Z,1.90
2018-11-10T17:21:35.789Z,2.23
2018-11-10T17:24:05.566Z,2.10
2018-11-10T17:26:38.706Z,1.93
2018-11-10T17:29:07.970Z,1.83
2018-11-10T17:31:41.341Z,2.97
2018-11-10T17:34:11.537Z,1.90
2018-11-10T17:36:45.367Z,2.50
2018-11-10T17:39:14.622Z,1.50
2018-11-10T17:41:43.893Z,1.83
2018-11-10T17:44:13.114Z,2.63
2018-11-10T17:46:57.664Z,2.27
2018-11-10T17:49:27.295Z,2.20
2018-11-10T17:51:57.682Z,2.83
2018-11-10T17:54:27.074Z,2.27
2018-11-10T17:56:57.169Z,1.50
2018-11-10T17:59:28.642Z,2.23
2018-11-10T18:01:57.628Z,2.23
2018-11-10T18:04:30.996Z,1.57
2018-11-10T18:07:00.121Z,1.97
2018-11-10T18:09:29.553Z,3.70
2018-11-10T18:12:02.137Z,3.27
2018-11-10T18:14:31.979Z,3.57
2018-11-10T18:17:14.345Z,5.23
2018-11-10T18:19:43.589Z,3.53
2018-11-10T18:22:12.747Z,3.80
2018-11-10T18:24:42.671Z,4.60
2018-11-10T18:27:12.943Z,4.43
2018-11-10T18:29:42.661Z,3.83
2018-11-10T18:32:16.480Z,4.53
2018-11-10T18:34:45.135Z,3.93
2018-11-10T18:37:27.655Z,4.37
2018-11-10T18:39:57.004Z,4.27
2018-11-10T18:42:25.863Z,6.53
2018-11-10T18:44:54.398Z,4.70
2018-11-10T18:47:24.503Z,6.13
2018-11-10T18:49:55.725Z,8.57
2018-11-10T18:52:25.971Z,9.00
2018-11-10T18:54:55.790Z,9.10
2018-11-10T18:57:28.078Z,10.63
2018-11-10T18:59:56.944Z,9.70
2018-11-10T19:02:43.068Z,9.73
2018-11-10T19:05:14.691Z,7.37
2018-11-10T19:07:44.424Z,6.50
2018-11-10T19:10:15.871Z,6.60
2018-11-10T19:12:45.319Z,5.23
2018-11-10T19:15:16.935Z,4.57
2018-11-10T19:17:46.284Z,5.43
2018-11-10T19:20:15.294Z,3.90
2018-11-10T19:22:44.298Z,5.67
2018-11-10T19:25:14.711Z,4.40
2018-11-10T19:27:49.326Z,3.10
2018-11-10T19:30:20.032Z,2.47
2018-11-10T19:32:50.138Z,3.20
2018-11-10T19:35:20.337Z,3.00
2018-11-10T19:37:49.842Z,3.47
2018-11-10T19:40:18.834Z,5.47
2018-11-10T19:42:51.878Z,5.23
2018-11-10T19:45:21.318Z,3.60
2018-11-10T19:48:03.538Z,3.87
2018-11-10T19:50:32.725Z,3.03
2018-11-10T19:53:02.026Z,2.97
2018-11-10T19:55:32.284Z,3.20
2018-11-10T19:58:02.169Z,1.40
2018-11-10T20:00:31.035Z,1.40
2018-11-10T20:03:05.187Z,1.60
2018-11-10T20:05:34.318Z,2.83
2018-11-10T20:08:07.458Z,3.60
2018-11-10T20:10:37.314Z,2.20
2018-11-10T20:13:09.576Z,4.60
2018-11-10T20:15:38.536Z,2.67
2018-11-10T20:18:12.662Z,2.30
2018-11-10T20:20:41.230Z,4.70
2018-11-10T20:23:15.169Z,1.47
2018-11-10T20:25:45.903Z,2.47
2018-11-10T20:28:18.837Z,2.43
2018-11-10T20:30:48.799Z,2.20
2018-11-10T20:33:22.299Z,1.60
2018-11-10T20:35:51.281Z,2.13
2018-11-10T20:38:25.268Z,3.13
2018-11-10T20:40:56.065Z,3.80
2018-11-10T20:43:25.408Z,1.73
2018-11-10T20:45:57.254Z,2.07
2018-11-10T20:48:27.943Z,1.57
2018-11-10T20:50:58.127Z,1.77
2018-11-10T20:53:31.759Z,1.60
2018-11-10T20:56:01.164Z,1.13
2018-11-10T20:58:33.359Z,3.47
2018-11-10T21:01:03.002Z,2.07
2018-11-10T21:03:37.520Z,3.33
2018-11-10T21:06:07.754Z,1.53
2018-11-10T21:08:38.734Z,2.47
2018-11-10T21:11:09.496Z,3.33
2018-11-10T21:13:42.133Z,2.70
2018-11-10T21:16:11.150Z,3.27
2018-11-10T21:18:46.367Z,1.90
2018-11-10T21:21:17.542Z,3.37
2018-11-10T21:23:47.158Z,4.73
2018-11-10T21:26:17.946Z,2.03
2018-11-10T21:28:48.050Z,3.37
2018-11-10T21:31:18.978Z,6.30
2018-11-10T21:33:51.985Z,4.80
2018-11-10T21:36:22.334Z,2.50
2018-11-10T21:38:55.593Z,2.40
2018-11-10T21:41:24.242Z,2.50
2018-11-10T21:43:58.479Z,4.63
2018-11-10T21:46:29.357Z,16.23
2018-11-10T21:49:02.130Z,44.77
2018-11-10T21:51:30.708Z,29.17
2018-11-10T21:54:03.542Z,14.13
2018-11-10T21:56:32.929Z,5.57
2018-11-10T21:59:15.846Z,3.07
2018-11-10T22:01:46.840Z,3.87
2018-11-10T22:04:16.766Z,10.43
2018-11-10T22:06:47.734Z,3.53
2018-11-10T22:09:16.769Z,4.37
2018-11-10T22:11:45.750Z,5.00
2018-11-10T22:14:16.246Z,2.40
2018-11-10T22:16:45.086Z,3.00
2018-11-10T22:19:19.035Z,3.13
2018-11-10T22:21:50.210Z,3.30
2018-11-10T22:24:19.450Z,4.07
2018-11-10T22:26:48.045Z,2.83
2018-11-10T22:29:27.520Z,4.90
2018-11-10T22:31:56.447Z,4.07
2018-11-10T22:34:25.901Z,5.27
2018-11-10T22:36:55.462Z,5.67
2018-11-10T22:39:27.847Z,5.13
2018-11-10T22:41:58.227Z,4.93
2018-11-10T22:44:27.966Z,3.43
2018-11-10T22:49:32.032Z,6.73
2018-11-10T22:52:01.645Z,8.57
2018-11-10T22:54:35.599Z,5.13
2018-11-10T22:57:04.588Z,4.70
2018-11-10T22:59:38.035Z,3.23
2018-11-10T23:02:08.254Z,5.87
2018-11-10T23:04:38.194Z,3.17
2018-11-10T23:07:07.392Z,6.20
2018-11-10T23:09:42.024Z,5.07
2018-11-10T23:12:11.677Z,7.97
2018-11-10T23:14:53.179Z,9.10
2018-11-10T23:17:22.760Z,11.10
2018-11-10T23:19:51.312Z,5.50
2018-11-10T23:22:20.606Z,4.27
2018-11-10T23:24:50.357Z,7.53
2018-11-10T23:27:21.150Z,7.77
2018-11-10T23:29:53.274Z,4.53
2018-11-10T23:32:22.358Z,10.23
2018-11-10T23:34:58.155Z,7.00
2018-11-10T23:37:27.143Z,7.87
2018-11-10T23:39:59.939Z,4.13
2018-11-10T23:42:28.529Z,5.17
2018-11-10T23:45:02.023Z,5.97
2018-11-10T23:47:30.678Z,4.70
2018-11-10T23:50:13.744Z,3.80
2018-11-10T23:52:44.218Z,13.33
2018-11-10T23:55:13.449Z,7.13
2018-11-10T23:57:42.448Z,6.20
